sensor_id;sensor_type;location;lat;lon;timestamp;temperature;humidity
51091;DHT22;37136;43.614;3.908;2022-08-30T00:00:12;24.70;99.90
51091;DHT22;37136;43.614;3.908;2022-08-30T00:02:57;24.70;99.90
51091;DHT22;37136;43.614;3.908;2022-08-30T00:05:23;24.80;99.90
51091;DHT22;37136;43.614;3.908;2022-08-30T00:07:49;24.90;99.90
51091;DHT22;37136;43.614;3.908;2022-08-30T00:10:15;24.90;99.90
51091;DHT22;37136;43.614;3.908;2022-08-30T00:12:41;24.90;99.90
51091;DHT22;37136;43.614;3.908;2022-08-30T00:15:09;25.00;99.90
51091;DHT22;37136;43.614;3.908;2022-08-30T00:17:35;25.00;99.90
51091;DHT22;37136;43.614;3.908;2022-08-30T00:20:02;25.00;99.90
51091;DHT22;37136;43.614;3.908;2022-08-30T00:22:28;25.00;99.90
51091;DHT22;37136;43.614;3.908;2022-08-30T00:24:55;25.00;99.90
51091;DHT22;37136;43.614;3.908;2022-08-30T00:27:21;25.00;99.90
51091;DHT22;37136;43.614;3.908;2022-08-30T00:29:46;25.00;99.90
51091;DHT22;37136;43.614;3.908;2022-08-30T00:32:12;25.00;99.90
51091;DHT22;37136;43.614;3.908;2022-08-30T00:34:38;25.00;99.90
51091;DHT22;37136;43.614;3.908;2022-08-30T00:37:04;25.00;99.90
51091;DHT22;37136;43.614;3.908;2022-08-30T00:39:30;25.00;99.90
51091;DHT22;37136;43.614;3.908;2022-08-30T00:41:56;25.00;99.90
51091;DHT22;37136;43.614;3.908;2022-08-30T00:44:25;25.00;99.90
51091;DHT22;37136;43.614;3.908;2022-08-30T00:46:51;25.00;99.90
51091;DHT22;37136;43.614;3.908;2022-08-30T00:49:17;25.00;99.90
51091;DHT22;37136;43.614;3.908;2022-08-30T00:51:43;25.00;99.90
51091;DHT22;37136;43.614;3.908;2022-08-30T00:54:09;25.00;99.90
51091;DHT22;37136;43.614;3.908;2022-08-30T00:56:35;25.00;1.00
51091;DHT22;37136;43.614;3.908;2022-08-30T00:59:04;24.90;1.00
51091;DHT22;37136;43.614;3.908;2022-08-30T01:01:30;24.90;1.00
51091;DHT22;37136;43.614;3.908;2022-08-30T01:03:58;24.90;1.00
51091;DHT22;37136;43.614;3.908;2022-08-30T01:06:24;25.00;1.00
51091;DHT22;37136;43.614;3.908;2022-08-30T01:08:50;25.00;1.00
51091;DHT22;37136;43.614;3.908;2022-08-30T01:11:20;25.00;99.90
51091;DHT22;37136;43.614;3.908;2022-08-30T01:13:47;25.00;99.90
51091;DHT22;37136;43.614;3.908;2022-08-30T01:16:14;25.00;99.90
51091;DHT22;37136;43.614;3.908;2022-08-30T01:18:42;25.00;99.90
51091;DHT22;37136;43.614;3.908;2022-08-30T01:23:42;24.90;99.90
51091;DHT22;37136;43.614;3.908;2022-08-30T01:26:09;24.90;99.90
51091;DHT22;37136;43.614;3.908;2022-08-30T01:28:38;24.90;99.90
51091;DHT22;37136;43.614;3.908;2022-08-30T01:31:04;24.80;99.90
51091;DHT22;37136;43.614;3.908;2022-08-30T01:33:30;24.80;99.90
51091;DHT22;37136;43.614;3.908;2022-08-30T01:35:59;24.80;99.90
51091;DHT22;37136;43.614;3.908;2022-08-30T01:38:36;24.80;99.90
51091;DHT22;37136;43.614;3.908;2022-08-30T01:41:21;24.80;99.90
51091;DHT22;37136;43.614;3.908;2022-08-30T01:43:48;24.70;1.00
51091;DHT22;37136;43.614;3.908;2022-08-30T01:46:16;24.70;1.00
51091;DHT22;37136;43.614;3.908;2022-08-30T01:48:43;24.60;1.00
51091;DHT22;37136;43.614;3.908;2022-08-30T01:51:11;24.60;1.00
51091;DHT22;37136;43.614;3.908;2022-08-30T01:53:39;24.60;1.00
51091;DHT22;37136;43.614;3.908;2022-08-30T01:56:06;24.60;1.00
51091;DHT22;37136;43.614;3.908;2022-08-30T01:58:33;24.60;1.00
51091;DHT22;37136;43.614;3.908;2022-08-30T02:00:59;24.60;1.00
51091;DHT22;37136;43.614;3.908;2022-08-30T02:03:25;24.50;1.00
51091;DHT22;37136;43.614;3.908;2022-08-30T02:05:55;24.60;1.00
51091;DHT22;37136;43.614;3.908;2022-08-30T02:08:21;24.60;1.00
51091;DHT22;37136;43.614;3.908;2022-08-30T02:10:46;24.60;1.00
51091;DHT22;37136;43.614;3.908;2022-08-30T02:13:12;24.70;1.00
51091;DHT22;37136;43.614;3.908;2022-08-30T02:15:38;24.80;1.00
51091;DHT22;37136;43.614;3.908;2022-08-30T02:18:03;24.80;1.00
51091;DHT22;37136;43.614;3.908;2022-08-30T02:20:29;24.80;1.00
51091;DHT22;37136;43.614;3.908;2022-08-30T02:22:55;24.80;1.00
51091;DHT22;37136;43.614;3.908;2022-08-30T02:25:20;24.80;1.00
51091;DHT22;37136;43.614;3.908;2022-08-30T02:27:46;24.80;1.00
51091;DHT22;37136;43.614;3.908;2022-08-30T02:30:12;24.80;1.00
51091;DHT22;37136;43.614;3.908;2022-08-30T02:32:38;24.70;1.00
51091;DHT22;37136;43.614;3.908;2022-08-30T02:35:06;24.70;1.00
51091;DHT22;37136;43.614;3.908;2022-08-30T02:37:31;24.70;1.00
51091;DHT22;37136;43.614;3.908;2022-08-30T02:39:57;24.80;1.00
51091;DHT22;37136;43.614;3.908;2022-08-30T02:42:23;24.80;1.00
51091;DHT22;37136;43.614;3.908;2022-08-30T02:44:49;24.90;1.00
51091;DHT22;37136;43.614;3.908;2022-08-30T02:47:14;24.80;1.00
51091;DHT22;37136;43.614;3.908;2022-08-30T02:49:40;24.80;1.00
51091;DHT22;37136;43.614;3.908;2022-08-30T02:52:06;24.70;1.00
51091;DHT22;37136;43.614;3.908;2022-08-30T02:54:32;24.70;1.00
51091;DHT22;37136;43.614;3.908;2022-08-30T02:56:58;24.80;1.00
51091;DHT22;37136;43.614;3.908;2022-08-30T02:59:29;24.70;1.00
51091;DHT22;37136;43.614;3.908;2022-08-30T03:01:54;24.60;1.00
51091;DHT22;37136;43.614;3.908;2022-08-30T03:04:20;24.60;1.00
51091;DHT22;37136;43.614;3.908;2022-08-30T03:06:46;24.70;1.00
51091;DHT22;37136;43.614;3.908;2022-08-30T03:09:12;24.70;1.00
51091;DHT22;37136;43.614;3.908;2022-08-30T03:11:37;24.80;1.00
51091;DHT22;37136;43.614;3.908;2022-08-30T03:14:03;24.90;1.00
51091;DHT22;37136;43.614;3.908;2022-08-30T03:16:29;24.80;1.00
51091;DHT22;37136;43.614;3.908;2022-08-30T03:18:54;24.80;1.00
51091;DHT22;37136;43.614;3.908;2022-08-30T03:21:20;24.80;1.00
51091;DHT22;37136;43.614;3.908;2022-08-30T03:23:46;24.90;1.00
51091;DHT22;37136;43.614;3.908;2022-08-30T03:26:12;24.90;1.00
51091;DHT22;37136;43.614;3.908;2022-08-30T03:28:43;25.00;1.00
51091;DHT22;37136;43.614;3.908;2022-08-30T03:31:09;25.00;1.00
51091;DHT22;37136;43.614;3.908;2022-08-30T03:33:36;25.00;1.00
51091;DHT22;37136;43.614;3.908;2022-08-30T03:36:06;25.00;1.00
51091;DHT22;37136;43.614;3.908;2022-08-30T03:38:32;24.90;1.00
51091;DHT22;37136;43.614;3.908;2022-08-30T03:40:57;24.90;1.00
51091;DHT22;37136;43.614;3.908;2022-08-30T03:43:23;24.80;1.00
51091;DHT22;37136;43.614;3.908;2022-08-30T03:45:49;24.90;1.00
51091;DHT22;37136;43.614;3.908;2022-08-30T03:48:15;24.90;1.00
51091;DHT22;37136;43.614;3.908;2022-08-30T03:50:41;25.00;1.00
51091;DHT22;37136;43.614;3.908;2022-08-30T03:53:06;24.90;1.00
51091;DHT22;37136;43.614;3.908;2022-08-30T03:55:32;24.80;1.00
51091;DHT22;37136;43.614;3.908;2022-08-30T03:57:58;24.80;1.00
51091;DHT22;37136;43.614;3.908;2022-08-30T04:00:25;24.80;1.00
51091;DHT22;37136;43.614;3.908;2022-08-30T04:02:51;24.70;1.00
51091;DHT22;37136;43.614;3.908;2022-08-30T04:05:17;24.80;1.00
51091;DHT22;37136;43.614;3.908;2022-08-30T04:07:42;24.80;1.00
51091;DHT22;37136;43.614;3.908;2022-08-30T04:10:09;24.80;1.00
51091;DHT22;37136;43.614;3.908;2022-08-30T04:12:35;24.70;1.00
51091;DHT22;37136;43.614;3.908;2022-08-30T04:15:01;24.70;1.00
51091;DHT22;37136;43.614;3.908;2022-08-30T04:17:27;24.60;1.00
51091;DHT22;37136;43.614;3.908;2022-08-30T04:19:53;24.70;1.00
51091;DHT22;37136;43.614;3.908;2022-08-30T04:22:19;24.60;1.00
51091;DHT22;37136;43.614;3.908;2022-08-30T04:24:45;24.60;1.00
51091;DHT22;37136;43.614;3.908;2022-08-30T04:27:11;24.60;1.00
51091;DHT22;37136;43.614;3.908;2022-08-30T04:29:37;24.50;1.00
51091;DHT22;37136;43.614;3.908;2022-08-30T04:32:03;24.60;1.00
51091;DHT22;37136;43.614;3.908;2022-08-30T04:34:29;24.60;1.00
51091;DHT22;37136;43.614;3.908;2022-08-30T04:36:56;24.50;1.00
51091;DHT22;37136;43.614;3.908;2022-08-30T04:39:21;24.50;1.00
51091;DHT22;37136;43.614;3.908;2022-08-30T04:41:47;24.50;1.00
51091;DHT22;37136;43.614;3.908;2022-08-30T04:44:13;24.40;1.00
51091;DHT22;37136;43.614;3.908;2022-08-30T04:46:40;24.40;1.00
51091;DHT22;37136;43.614;3.908;2022-08-30T04:49:06;24.40;1.00
51091;DHT22;37136;43.614;3.908;2022-08-30T04:51:32;24.40;1.00
51091;DHT22;37136;43.614;3.908;2022-08-30T04:53:58;24.40;1.00
51091;DHT22;37136;43.614;3.908;2022-08-30T04:56:24;24.40;1.00
51091;DHT22;37136;43.614;3.908;2022-08-30T04:58:54;24.40;1.00
51091;DHT22;37136;43.614;3.908;2022-08-30T05:01:26;24.40;1.00
51091;DHT22;37136;43.614;3.908;2022-08-30T05:03:53;24.40;1.00
51091;DHT22;37136;43.614;3.908;2022-08-30T05:06:21;24.40;1.00
51091;DHT22;37136;43.614;3.908;2022-08-30T05:08:47;24.40;1.00
51091;DHT22;37136;43.614;3.908;2022-08-30T05:11:14;24.50;1.00
51091;DHT22;37136;43.614;3.908;2022-08-30T05:13:40;24.60;1.00
51091;DHT22;37136;43.614;3.908;2022-08-30T05:16:07;24.60;1.00
51091;DHT22;37136;43.614;3.908;2022-08-30T05:18:34;24.60;1.00
51091;DHT22;37136;43.614;3.908;2022-08-30T05:21:05;24.60;1.00
51091;DHT22;37136;43.614;3.908;2022-08-30T05:23:31;24.60;1.00
51091;DHT22;37136;43.614;3.908;2022-08-30T05:25:57;24.60;1.00
51091;DHT22;37136;43.614;3.908;2022-08-30T05:28:23;24.60;1.00
51091;DHT22;37136;43.614;3.908;2022-08-30T05:30:49;24.60;1.00
51091;DHT22;37136;43.614;3.908;2022-08-30T05:33:15;24.60;1.00
51091;DHT22;37136;43.614;3.908;2022-08-30T05:35:40;24.60;1.00
51091;DHT22;37136;43.614;3.908;2022-08-30T05:38:06;24.70;1.00
51091;DHT22;37136;43.614;3.908;2022-08-30T05:40:32;24.70;1.00
51091;DHT22;37136;43.614;3.908;2022-08-30T05:42:57;24.70;1.00
51091;DHT22;37136;43.614;3.908;2022-08-30T05:45:23;24.70;1.00
51091;DHT22;37136;43.614;3.908;2022-08-30T05:47:49;24.80;1.00
51091;DHT22;37136;43.614;3.908;2022-08-30T05:50:15;24.70;1.00
51091;DHT22;37136;43.614;3.908;2022-08-30T05:52:41;24.80;1.00
51091;DHT22;37136;43.614;3.908;2022-08-30T05:55:10;24.80;1.00
51091;DHT22;37136;43.614;3.908;2022-08-30T05:57:38;24.80;1.00
51091;DHT22;37136;43.614;3.908;2022-08-30T06:00:07;24.90;1.00
51091;DHT22;37136;43.614;3.908;2022-08-30T06:02:34;24.90;1.00
51091;DHT22;37136;43.614;3.908;2022-08-30T06:05:01;24.90;99.90
51091;DHT22;37136;43.614;3.908;2022-08-30T06:07:30;25.00;99.90
51091;DHT22;37136;43.614;3.908;2022-08-30T06:09:56;25.00;99.90
51091;DHT22;37136;43.614;3.908;2022-08-30T06:12:22;25.10;99.90
51091;DHT22;37136;43.614;3.908;2022-08-30T06:14:48;25.10;99.90
51091;DHT22;37136;43.614;3.908;2022-08-30T06:17:14;25.20;99.90
51091;DHT22;37136;43.614;3.908;2022-08-30T06:19:40;25.20;99.90
51091;DHT22;37136;43.614;3.908;2022-08-30T06:22:06;25.10;99.90
51091;DHT22;37136;43.614;3.908;2022-08-30T06:24:32;25.10;99.90
51091;DHT22;37136;43.614;3.908;2022-08-30T06:27:00;25.20;99.90
51091;DHT22;37136;43.614;3.908;2022-08-30T06:29:27;25.30;99.90
51091;DHT22;37136;43.614;3.908;2022-08-30T06:31:55;25.30;99.90
51091;DHT22;37136;43.614;3.908;2022-08-30T06:34:22;25.30;99.90
51091;DHT22;37136;43.614;3.908;2022-08-30T06:36:47;25.20;99.90
51091;DHT22;37136;43.614;3.908;2022-08-30T06:39:14;25.20;99.90
51091;DHT22;37136;43.614;3.908;2022-08-30T06:41:40;25.20;99.90
51091;DHT22;37136;43.614;3.908;2022-08-30T06:44:07;25.20;99.90
51091;DHT22;37136;43.614;3.908;2022-08-30T06:46:35;25.20;99.90
51091;DHT22;37136;43.614;3.908;2022-08-30T06:49:02;25.20;99.90
51091;DHT22;37136;43.614;3.908;2022-08-30T06:51:35;25.20;99.90
51091;DHT22;37136;43.614;3.908;2022-08-30T06:54:01;25.30;99.90
51091;DHT22;37136;43.614;3.908;2022-08-30T06:56:27;25.30;99.90
51091;DHT22;37136;43.614;3.908;2022-08-30T06:58:53;25.40;99.90
51091;DHT22;37136;43.614;3.908;2022-08-30T07:01:27;25.50;99.90
51091;DHT22;37136;43.614;3.908;2022-08-30T07:03:53;25.60;99.90
51091;DHT22;37136;43.614;3.908;2022-08-30T07:06:20;25.70;99.90
51091;DHT22;37136;43.614;3.908;2022-08-30T07:08:47;25.70;99.90
51091;DHT22;37136;43.614;3.908;2022-08-30T07:11:14;25.70;99.90
51091;DHT22;37136;43.614;3.908;2022-08-30T07:13:40;25.80;99.90
51091;DHT22;37136;43.614;3.908;2022-08-30T07:16:13;25.80;99.90
51091;DHT22;37136;43.614;3.908;2022-08-30T07:18:39;25.80;99.90
51091;DHT22;37136;43.614;3.908;2022-08-30T07:21:32;25.80;99.90
51091;DHT22;37136;43.614;3.908;2022-08-30T07:23:59;25.80;99.90
51091;DHT22;37136;43.614;3.908;2022-08-30T07:26:44;26.00;99.90
51091;DHT22;37136;43.614;3.908;2022-08-30T07:29:14;26.10;99.90
51091;DHT22;37136;43.614;3.908;2022-08-30T07:31:41;26.00;99.90
51091;DHT22;37136;43.614;3.908;2022-08-30T07:34:07;26.00;99.90
51091;DHT22;37136;43.614;3.908;2022-08-30T07:36:34;26.10;99.90
51091;DHT22;37136;43.614;3.908;2022-08-30T07:39:01;26.10;99.90
51091;DHT22;37136;43.614;3.908;2022-08-30T07:41:30;26.20;99.90
51091;DHT22;37136;43.614;3.908;2022-08-30T07:43:57;26.20;99.90
51091;DHT22;37136;43.614;3.908;2022-08-30T07:46:24;26.00;99.90
51091;DHT22;37136;43.614;3.908;2022-08-30T07:48:50;26.30;99.90
51091;DHT22;37136;43.614;3.908;2022-08-30T07:51:20;26.50;99.90
51091;DHT22;37136;43.614;3.908;2022-08-30T07:53:47;26.50;99.90
51091;DHT22;37136;43.614;3.908;2022-08-30T07:56:14;26.70;99.90
51091;DHT22;37136;43.614;3.908;2022-08-30T07:58:40;26.80;99.90
51091;DHT22;37136;43.614;3.908;2022-08-30T08:01:08;26.60;99.90
51091;DHT22;37136;43.614;3.908;2022-08-30T08:03:35;26.80;99.90
51091;DHT22;37136;43.614;3.908;2022-08-30T08:06:03;26.80;99.90
51091;DHT22;37136;43.614;3.908;2022-08-30T08:08:29;26.70;99.90
51091;DHT22;37136;43.614;3.908;2022-08-30T08:10:55;26.80;99.90
51091;DHT22;37136;43.614;3.908;2022-08-30T08:13:21;27.30;99.90
51091;DHT22;37136;43.614;3.908;2022-08-30T08:15:48;27.50;99.90
51091;DHT22;37136;43.614;3.908;2022-08-30T08:18:14;27.40;99.90
51091;DHT22;37136;43.614;3.908;2022-08-30T08:20:40;27.20;99.90
51091;DHT22;37136;43.614;3.908;2022-08-30T08:23:06;27.10;99.90
51091;DHT22;37136;43.614;3.908;2022-08-30T08:25:32;27.00;99.90
51091;DHT22;37136;43.614;3.908;2022-08-30T08:28:02;27.40;99.90
51091;DHT22;37136;43.614;3.908;2022-08-30T08:30:28;27.80;95.70
51091;DHT22;37136;43.614;3.908;2022-08-30T08:32:53;27.80;90.40
51091;DHT22;37136;43.614;3.908;2022-08-30T08:35:19;27.70;91.10
51091;DHT22;37136;43.614;3.908;2022-08-30T08:37:45;27.60;87.40
51091;DHT22;37136;43.614;3.908;2022-08-30T08:40:15;27.80;87.40
51091;DHT22;37136;43.614;3.908;2022-08-30T08:43:01;28.00;65.30
51091;DHT22;37136;43.614;3.908;2022-08-30T08:45:37;27.80;55.50
51091;DHT22;37136;43.614;3.908;2022-08-30T08:48:33;27.90;60.00
51091;DHT22;37136;43.614;3.908;2022-08-30T08:51:01;27.90;69.00
51091;DHT22;37136;43.614;3.908;2022-08-30T08:53:54;27.60;64.90
51091;DHT22;37136;43.614;3.908;2022-08-30T08:56:20;27.30;94.50
51091;DHT22;37136;43.614;3.908;2022-08-30T08:58:55;27.50;92.80
51091;DHT22;37136;43.614;3.908;2022-08-30T09:01:27;28.00;60.90
51091;DHT22;37136;43.614;3.908;2022-08-30T09:03:55;28.20;40.20
51091;DHT22;37136;43.614;3.908;2022-08-30T09:06:56;28.20;28.40
51091;DHT22;37136;43.614;3.908;2022-08-30T09:09:27;28.10;27.50
51091;DHT22;37136;43.614;3.908;2022-08-30T09:11:54;28.20;41.90
51091;DHT22;37136;43.614;3.908;2022-08-30T09:14:30;28.50;27.50
51091;DHT22;37136;43.614;3.908;2022-08-30T09:17:03;28.60;11.30
51091;DHT22;37136;43.614;3.908;2022-08-30T09:21:59;28.20;12.80
51091;DHT22;37136;43.614;3.908;2022-08-30T09:24:25;28.40;14.40
51091;DHT22;37136;43.614;3.908;2022-08-30T09:26:51;28.70;13.70
51091;DHT22;37136;43.614;3.908;2022-08-30T09:29:18;29.10;1.00
51091;DHT22;37136;43.614;3.908;2022-08-30T09:31:51;29.20;1.00
51091;DHT22;37136;43.614;3.908;2022-08-30T09:34:21;28.90;1.00
51091;DHT22;37136;43.614;3.908;2022-08-30T09:36:51;28.50;1.00
51091;DHT22;37136;43.614;3.908;2022-08-30T09:39:25;28.30;2.60
51091;DHT22;37136;43.614;3.908;2022-08-30T09:41:51;28.30;9.30
51091;DHT22;37136;43.614;3.908;2022-08-30T09:44:21;28.30;9.70
51091;DHT22;37136;43.614;3.908;2022-08-30T09:46:49;28.30;16.40
51091;DHT22;37136;43.614;3.908;2022-08-30T09:49:41;28.40;12.80
51091;DHT22;37136;43.614;3.908;2022-08-30T10:01:29;28.00;12.50
51091;DHT22;37136;43.614;3.908;2022-08-30T10:04:17;27.90;28.70
51091;DHT22;37136;43.614;3.908;2022-08-30T10:07:12;27.80;21.30
51091;DHT22;37136;43.614;3.908;2022-08-30T10:12:40;27.80;12.90
51091;DHT22;37136;43.614;3.908;2022-08-30T10:25:50;29.30;1.00
51091;DHT22;37136;43.614;3.908;2022-08-30T10:28:31;29.60;1.00
51091;DHT22;37136;43.614;3.908;2022-08-30T10:31:07;30.10;1.00
51091;DHT22;37136;43.614;3.908;2022-08-30T10:33:39;30.20;1.00
51091;DHT22;37136;43.614;3.908;2022-08-30T10:36:10;30.00;1.00
51091;DHT22;37136;43.614;3.908;2022-08-30T10:38:55;29.80;1.00
51091;DHT22;37136;43.614;3.908;2022-08-30T10:41:52;29.40;1.00
51091;DHT22;37136;43.614;3.908;2022-08-30T10:44:26;29.10;1.00
51091;DHT22;37136;43.614;3.908;2022-08-30T10:49:25;29.30;1.00
51091;DHT22;37136;43.614;3.908;2022-08-30T10:56:56;29.90;1.00
51091;DHT22;37136;43.614;3.908;2022-08-30T10:59:22;30.00;1.00
51091;DHT22;37136;43.614;3.908;2022-08-30T11:10:44;30.70;1.00
51091;DHT22;37136;43.614;3.908;2022-08-30T11:13:18;31.50;1.00
51091;DHT22;37136;43.614;3.908;2022-08-30T11:18:32;31.50;1.00
51091;DHT22;37136;43.614;3.908;2022-08-30T11:39:59;30.50;1.00
51091;DHT22;37136;43.614;3.908;2022-08-30T11:42:33;30.70;1.00
51091;DHT22;37136;43.614;3.908;2022-08-30T11:50:35;30.60;1.00
51091;DHT22;37136;43.614;3.908;2022-08-30T11:55:59;30.50;1.00
51091;DHT22;37136;43.614;3.908;2022-08-30T12:01:30;30.70;1.00
51091;DHT22;37136;43.614;3.908;2022-08-30T12:06:46;30.40;1.00
51091;DHT22;37136;43.614;3.908;2022-08-30T12:11:58;30.60;1.00
51091;DHT22;37136;43.614;3.908;2022-08-30T12:17:25;31.00;1.00
51091;DHT22;37136;43.614;3.908;2022-08-30T12:20:18;30.80;1.00
51091;DHT22;37136;43.614;3.908;2022-08-30T12:22:46;30.80;1.00
51091;DHT22;37136;43.614;3.908;2022-08-30T12:25:32;30.80;1.00
51091;DHT22;37136;43.614;3.908;2022-08-30T12:33:54;31.20;1.00
51091;DHT22;37136;43.614;3.908;2022-08-30T12:39:17;30.80;1.00
51091;DHT22;37136;43.614;3.908;2022-08-30T12:41:44;30.70;1.00
51091;DHT22;37136;43.614;3.908;2022-08-30T12:44:23;30.70;1.00
51091;DHT22;37136;43.614;3.908;2022-08-30T12:47:02;30.50;1.00
51091;DHT22;37136;43.614;3.908;2022-08-30T12:49:33;30.70;1.00
51091;DHT22;37136;43.614;3.908;2022-08-30T12:54:55;30.70;1.00
51091;DHT22;37136;43.614;3.908;2022-08-30T13:00:34;30.60;1.00
51091;DHT22;37136;43.614;3.908;2022-08-30T13:03:03;30.60;1.00
51091;DHT22;37136;43.614;3.908;2022-08-30T13:13:38;30.80;1.00
51091;DHT22;37136;43.614;3.908;2022-08-30T13:16:11;30.80;1.00
51091;DHT22;37136;43.614;3.908;2022-08-30T13:18:38;30.70;1.00
51091;DHT22;37136;43.614;3.908;2022-08-30T13:21:26;30.80;1.00
51091;DHT22;37136;43.614;3.908;2022-08-30T13:24:05;30.60;1.00
51091;DHT22;37136;43.614;3.908;2022-08-30T13:26:34;30.70;1.00
51091;DHT22;37136;43.614;3.908;2022-08-30T13:29:04;30.50;1.00
51091;DHT22;37136;43.614;3.908;2022-08-30T13:31:31;29.80;1.00
51091;DHT22;37136;43.614;3.908;2022-08-30T13:33:58;29.70;1.00
51091;DHT22;37136;43.614;3.908;2022-08-30T13:36:45;29.20;1.00
51091;DHT22;37136;43.614;3.908;2022-08-30T13:39:11;29.20;1.00
51091;DHT22;37136;43.614;3.908;2022-08-30T13:41:37;29.70;1.00
51091;DHT22;37136;43.614;3.908;2022-08-30T13:44:04;30.10;1.00
51091;DHT22;37136;43.614;3.908;2022-08-30T13:46:38;30.10;1.00
51091;DHT22;37136;43.614;3.908;2022-08-30T13:49:05;29.70;1.00
51091;DHT22;37136;43.614;3.908;2022-08-30T13:51:31;29.60;1.00
51091;DHT22;37136;43.614;3.908;2022-08-30T13:54:15;29.20;1.00
51091;DHT22;37136;43.614;3.908;2022-08-30T13:56:41;28.90;1.00
51091;DHT22;37136;43.614;3.908;2022-08-30T13:59:10;28.80;1.00
51091;DHT22;37136;43.614;3.908;2022-08-30T14:01:35;28.70;1.00
51091;DHT22;37136;43.614;3.908;2022-08-30T14:04:02;28.50;1.00
51091;DHT22;37136;43.614;3.908;2022-08-30T14:06:27;28.40;12.20
51091;DHT22;37136;43.614;3.908;2022-08-30T14:08:53;28.20;20.50
51091;DHT22;37136;43.614;3.908;2022-08-30T14:11:19;28.30;20.30
51091;DHT22;37136;43.614;3.908;2022-08-30T14:13:46;28.20;21.30
51091;DHT22;37136;43.614;3.908;2022-08-30T14:16:12;28.10;26.80
51091;DHT22;37136;43.614;3.908;2022-08-30T14:18:43;28.10;27.10
51091;DHT22;37136;43.614;3.908;2022-08-30T14:21:30;28.10;34.20
51091;DHT22;37136;43.614;3.908;2022-08-30T14:23:56;27.90;61.60
51091;DHT22;37136;43.614;3.908;2022-08-30T14:26:29;27.90;74.70
51091;DHT22;37136;43.614;3.908;2022-08-30T14:29:00;27.80;72.60
51091;DHT22;37136;43.614;3.908;2022-08-30T14:31:25;27.70;90.10
51091;DHT22;37136;43.614;3.908;2022-08-30T14:33:51;27.70;90.30
51091;DHT22;37136;43.614;3.908;2022-08-30T14:36:17;27.70;88.60
51091;DHT22;37136;43.614;3.908;2022-08-30T14:38:44;27.70;92.70
51091;DHT22;37136;43.614;3.908;2022-08-30T14:41:10;27.80;91.90
51091;DHT22;37136;43.614;3.908;2022-08-30T14:43:36;27.80;91.10
51091;DHT22;37136;43.614;3.908;2022-08-30T14:46:05;27.70;82.80
51091;DHT22;37136;43.614;3.908;2022-08-30T14:48:30;27.80;84.90
51091;DHT22;37136;43.614;3.908;2022-08-30T14:50:56;27.90;75.80
51091;DHT22;37136;43.614;3.908;2022-08-30T14:53:22;27.80;84.40
51091;DHT22;37136;43.614;3.908;2022-08-30T14:55:48;28.00;85.20
51091;DHT22;37136;43.614;3.908;2022-08-30T14:58:13;28.20;59.50
51091;DHT22;37136;43.614;3.908;2022-08-30T15:00:48;28.80;27.60
51091;DHT22;37136;43.614;3.908;2022-08-30T15:03:14;29.50;1.00
51091;DHT22;37136;43.614;3.908;2022-08-30T15:05:40;29.70;1.00
51091;DHT22;37136;43.614;3.908;2022-08-30T15:08:06;29.60;1.00
51091;DHT22;37136;43.614;3.908;2022-08-30T15:10:32;29.40;1.00
51091;DHT22;37136;43.614;3.908;2022-08-30T15:12:58;29.40;1.00
51091;DHT22;37136;43.614;3.908;2022-08-30T15:15:24;29.50;1.00
51091;DHT22;37136;43.614;3.908;2022-08-30T15:17:50;29.70;1.00
51091;DHT22;37136;43.614;3.908;2022-08-30T15:20:16;30.50;1.00
51091;DHT22;37136;43.614;3.908;2022-08-30T15:22:45;30.50;1.00
51091;DHT22;37136;43.614;3.908;2022-08-30T15:25:11;29.50;1.00
51091;DHT22;37136;43.614;3.908;2022-08-30T15:27:37;29.20;1.00
51091;DHT22;37136;43.614;3.908;2022-08-30T15:30:04;28.80;1.00
51091;DHT22;37136;43.614;3.908;2022-08-30T15:32:30;28.60;1.00
51091;DHT22;37136;43.614;3.908;2022-08-30T15:34:57;28.80;1.00
51091;DHT22;37136;43.614;3.908;2022-08-30T15:37:24;28.50;1.00
51091;DHT22;37136;43.614;3.908;2022-08-30T15:39:51;28.90;1.00
51091;DHT22;37136;43.614;3.908;2022-08-30T15:42:17;28.80;1.00
51091;DHT22;37136;43.614;3.908;2022-08-30T15:44:50;28.10;3.20
51091;DHT22;37136;43.614;3.908;2022-08-30T15:47:21;28.10;26.90
51091;DHT22;37136;43.614;3.908;2022-08-30T15:50:02;29.60;3.90
51091;DHT22;37136;43.614;3.908;2022-08-30T15:52:29;31.50;1.00
51091;DHT22;37136;43.614;3.908;2022-08-30T15:54:55;32.30;1.00
51091;DHT22;37136;43.614;3.908;2022-08-30T15:57:21;35.70;1.00
51091;DHT22;37136;43.614;3.908;2022-08-30T15:59:47;36.10;1.00
51091;DHT22;37136;43.614;3.908;2022-08-30T16:02:13;35.90;1.00
51091;DHT22;37136;43.614;3.908;2022-08-30T16:04:39;37.50;1.00
51091;DHT22;37136;43.614;3.908;2022-08-30T16:07:06;39.50;99.90
51091;DHT22;37136;43.614;3.908;2022-08-30T16:09:33;37.30;99.90
51091;DHT22;37136;43.614;3.908;2022-08-30T16:12:01;37.00;99.90
51091;DHT22;37136;43.614;3.908;2022-08-30T16:14:27;38.00;99.90
51091;DHT22;37136;43.614;3.908;2022-08-30T16:16:54;35.10;99.90
51091;DHT22;37136;43.614;3.908;2022-08-30T16:19:20;31.30;99.90
51091;DHT22;37136;43.614;3.908;2022-08-30T16:21:46;29.70;99.90
51091;DHT22;37136;43.614;3.908;2022-08-30T16:24:12;31.00;99.90
51091;DHT22;37136;43.614;3.908;2022-08-30T16:26:38;30.20;99.90
51091;DHT22;37136;43.614;3.908;2022-08-30T16:29:06;30.40;99.90
51091;DHT22;37136;43.614;3.908;2022-08-30T16:58:06;29.10;99.90
51091;DHT22;37136;43.614;3.908;2022-08-30T17:00:33;29.00;1.00
51091;DHT22;37136;43.614;3.908;2022-08-30T17:02:59;28.70;1.00
51091;DHT22;37136;43.614;3.908;2022-08-30T17:05:25;28.60;1.00
51091;DHT22;37136;43.614;3.908;2022-08-30T17:07:51;28.60;1.00
51091;DHT22;37136;43.614;3.908;2022-08-30T17:10:19;28.40;1.00
51091;DHT22;37136;43.614;3.908;2022-08-30T17:12:49;28.30;1.00
51091;DHT22;37136;43.614;3.908;2022-08-30T17:15:17;28.20;1.00
51091;DHT22;37136;43.614;3.908;2022-08-30T17:17:45;28.20;1.00
51091;DHT22;37136;43.614;3.908;2022-08-30T17:20:11;27.90;1.00
51091;DHT22;37136;43.614;3.908;2022-08-30T17:22:37;27.70;1.00
51091;DHT22;37136;43.614;3.908;2022-08-30T17:25:03;27.40;1.00
51091;DHT22;37136;43.614;3.908;2022-08-30T17:27:29;27.40;1.00
51091;DHT22;37136;43.614;3.908;2022-08-30T17:29:55;27.40;1.00
51091;DHT22;37136;43.614;3.908;2022-08-30T17:32:21;27.20;1.00
51091;DHT22;37136;43.614;3.908;2022-08-30T17:34:47;27.00;6.20
51091;DHT22;37136;43.614;3.908;2022-08-30T17:37:12;26.90;21.90
51091;DHT22;37136;43.614;3.908;2022-08-30T17:39:38;27.10;15.30
51091;DHT22;37136;43.614;3.908;2022-08-30T17:42:04;27.20;7.20
51091;DHT22;37136;43.614;3.908;2022-08-30T17:44:32;27.10;11.40
51091;DHT22;37136;43.614;3.908;2022-08-30T17:46:58;27.00;6.70
51091;DHT22;37136;43.614;3.908;2022-08-30T17:49:24;26.90;22.90
51091;DHT22;37136;43.614;3.908;2022-08-30T17:51:53;26.70;25.50
51091;DHT22;37136;43.614;3.908;2022-08-30T17:54:20;26.70;22.80
51091;DHT22;37136;43.614;3.908;2022-08-30T17:56:45;26.80;23.40
51091;DHT22;37136;43.614;3.908;2022-08-30T17:59:14;26.70;19.40
51091;DHT22;37136;43.614;3.908;2022-08-30T18:01:41;26.60;29.70